createdAt,value
2023-03-07T00:01:32.175Z,24.20
2023-03-07T00:03:59.937Z,19.02
2023-03-07T00:06:27.323Z,17.98
2023-03-07T00:08:57.290Z,24.65
2023-03-07T00:11:24.645Z,25.92
2023-03-07T00:13:52.306Z,24.90
2023-03-07T00:16:22.295Z,27.63
2023-03-07T00:18:49.776Z,30.85
2023-03-07T00:21:19.869Z,22.70
2023-03-07T00:23:47.766Z,22.48
2023-03-07T00:26:20.862Z,25.67
2023-03-07T00:28:49.500Z,25.83
2023-03-07T00:31:17.372Z,25.17
2023-03-07T00:33:44.560Z,24.73
2023-03-07T00:36:23.066Z,23.55
2023-03-07T00:38:51.550Z,27.55
2023-03-07T00:41:21.485Z,32.25
2023-03-07T00:43:49.040Z,26.00
2023-03-07T00:46:18.366Z,19.67
2023-03-07T00:48:45.893Z,25.77
2023-03-07T00:51:15.825Z,22.90
2023-03-07T00:53:43.664Z,24.13
2023-03-07T00:56:24.046Z,26.92
2023-03-07T00:58:51.536Z,28.23
2023-03-07T01:01:23.628Z,22.90
2023-03-07T01:03:53.873Z,24.63
2023-03-07T01:06:24.030Z,20.92
2023-03-07T01:08:51.006Z,25.00
2023-03-07T01:11:18.521Z,22.15
2023-03-07T01:13:45.957Z,29.30
2023-03-07T01:16:22.543Z,20.50
2023-03-07T01:18:55.418Z,22.05
2023-03-07T01:21:43.276Z,24.65
2023-03-07T01:24:14.469Z,18.73
2023-03-07T01:26:41.396Z,20.25
2023-03-07T01:29:08.839Z,20.45
2023-03-07T01:31:35.947Z,22.83
2023-03-07T01:34:04.323Z,21.13
2023-03-07T01:36:34.319Z,18.98
2023-03-07T01:39:06.672Z,20.10
2023-03-07T01:41:38.450Z,22.27
2023-03-07T01:44:23.200Z,23.48
2023-03-07T01:46:55.659Z,23.15
2023-03-07T01:49:25.558Z,19.63
2023-03-07T01:52:05.874Z,20.73
2023-03-07T01:54:37.501Z,21.75
2023-03-07T01:57:05.229Z,28.58
2023-03-07T01:59:40.721Z,21.27
2023-03-07T02:02:12.186Z,22.67
2023-03-07T02:04:54.676Z,21.42
2023-03-07T02:07:25.227Z,23.17
2023-03-07T02:09:53.840Z,23.33
2023-03-07T02:12:22.779Z,21.85
2023-03-07T02:14:50.651Z,19.65
2023-03-07T02:17:18.908Z,21.55
2023-03-07T02:19:48.838Z,21.65
2023-03-07T02:22:18.861Z,20.45
2023-03-07T02:24:52.942Z,25.02
2023-03-07T02:27:20.015Z,22.92
2023-03-07T02:29:47.028Z,19.10
2023-03-07T02:32:14.765Z,20.75
2023-03-07T02:34:41.762Z,16.25
2023-03-07T02:37:13.430Z,18.10
2023-03-07T02:39:43.385Z,18.88
2023-03-07T02:42:23.668Z,17.50
2023-03-07T02:45:05.889Z,19.80
2023-03-07T02:47:32.849Z,17.92
2023-03-07T02:49:59.665Z,16.15
2023-03-07T02:52:28.588Z,18.23
2023-03-07T02:54:56.433Z,22.13
2023-03-07T02:57:23.305Z,24.10
2023-03-07T02:59:50.279Z,20.58
2023-03-07T03:02:17.546Z,20.80
2023-03-07T03:04:44.561Z,23.35
2023-03-07T03:07:11.851Z,17.90
2023-03-07T03:09:39.103Z,21.10
2023-03-07T03:12:06.399Z,19.48
2023-03-07T03:14:33.494Z,22.42
2023-03-07T03:17:00.526Z,16.90
2023-03-07T03:19:29.371Z,22.10
2023-03-07T03:21:57.252Z,19.17
2023-03-07T03:24:24.073Z,20.75
2023-03-07T03:26:51.018Z,19.33
2023-03-07T03:29:17.976Z,21.00
2023-03-07T03:31:45.465Z,21.23
2023-03-07T03:34:12.514Z,18.48
2023-03-07T03:36:39.505Z,17.73
2023-03-07T03:39:11.053Z,14.10
2023-03-07T03:41:38.702Z,23.10
2023-03-07T03:44:05.745Z,16.92
2023-03-07T03:46:32.721Z,20.50
2023-03-07T03:48:59.737Z,19.48
2023-03-07T03:51:27.217Z,20.55
2023-03-07T03:53:54.809Z,15.57
2023-03-07T03:56:23.919Z,17.20
2023-03-07T03:58:53.444Z,19.52
2023-03-07T04:01:22.740Z,18.35
2023-03-07T04:03:51.911Z,17.33
2023-03-07T04:06:30.727Z,16.38
2023-03-07T04:08:58.768Z,17.08
2023-03-07T04:11:26.817Z,18.80
2023-03-07T04:13:53.985Z,13.40
2023-03-07T04:16:22.723Z,16.60
2023-03-07T04:18:52.472Z,18.58
2023-03-07T04:21:21.290Z,19.13
2023-03-07T04:23:55.521Z,18.88
2023-03-07T04:26:22.666Z,16.60
2023-03-07T04:28:49.666Z,14.55
2023-03-07T04:31:25.419Z,16.70
2023-03-07T04:33:53.842Z,15.25
2023-03-07T04:36:24.644Z,17.33
2023-03-07T04:38:51.631Z,14.40
2023-03-07T04:41:21.321Z,15.98
2023-03-07T04:43:48.301Z,14.27
2023-03-07T04:46:17.159Z,18.40
2023-03-07T04:48:45.154Z,18.05
2023-03-07T04:51:12.489Z,23.35
2023-03-07T04:53:39.565Z,24.10
2023-03-07T04:56:08.412Z,20.35
2023-03-07T04:58:36.074Z,21.85
2023-03-07T05:01:04.336Z,24.65
2023-03-07T05:03:32.019Z,22.35
2023-03-07T05:06:06.204Z,22.52
2023-03-07T05:08:33.367Z,27.92
2023-03-07T05:11:00.223Z,27.55
2023-03-07T05:13:27.250Z,28.00
2023-03-07T05:15:56.244Z,39.75
2023-03-07T05:18:23.847Z,35.78
2023-03-07T05:20:51.691Z,32.97
2023-03-07T05:23:19.513Z,44.30
2023-03-07T05:25:50.056Z,21.00
2023-03-07T05:28:17.634Z,17.08
2023-03-07T05:30:45.668Z,16.80
2023-03-07T05:33:12.997Z,18.77
2023-03-07T05:35:40.006Z,14.45
2023-03-07T05:38:07.811Z,19.10
2023-03-07T05:40:35.250Z,16.05
2023-03-07T05:43:02.423Z,20.08
2023-03-07T05:45:29.618Z,20.60
2023-03-07T05:47:56.426Z,20.20
2023-03-07T05:50:23.972Z,17.73
2023-03-07T05:52:50.870Z,17.67
2023-03-07T05:55:18.663Z,19.33
2023-03-07T05:57:45.820Z,22.25
2023-03-07T06:00:13.613Z,21.00
2023-03-07T06:02:41.732Z,19.80
2023-03-07T06:05:09.122Z,22.15
2023-03-07T06:07:36.190Z,19.08
2023-03-07T06:10:03.483Z,18.17
2023-03-07T06:12:30.325Z,16.02
2023-03-07T06:14:57.118Z,15.13
2023-03-07T06:17:23.985Z,17.75
2023-03-07T06:19:51.352Z,20.13
2023-03-07T06:22:18.360Z,25.33
2023-03-07T06:24:45.421Z,26.05
2023-03-07T06:27:12.412Z,21.13
2023-03-07T06:29:39.475Z,19.10
2023-03-07T06:32:06.719Z,17.23
2023-03-07T06:34:34.083Z,24.70
2023-03-07T06:37:01.168Z,19.00
2023-03-07T06:39:30.917Z,17.08
2023-03-07T06:41:58.308Z,14.50
2023-03-07T06:44:25.184Z,18.20
2023-03-07T06:46:52.050Z,19.92
2023-03-07T06:49:18.855Z,12.68
2023-03-07T06:51:45.797Z,20.23
2023-03-07T06:54:12.864Z,14.60
2023-03-07T06:56:39.998Z,17.40
2023-03-07T06:59:07.209Z,21.05
2023-03-07T07:01:35.790Z,8.98
2023-03-07T07:04:03.723Z,13.77
2023-03-07T07:06:30.621Z,8.65
2023-03-07T07:08:58.590Z,10.00
2023-03-07T07:11:26.467Z,11.27
2023-03-07T07:13:53.603Z,14.52
2023-03-07T07:16:20.712Z,8.60
2023-03-07T07:18:49.621Z,6.93
2023-03-07T07:21:16.520Z,12.05
2023-03-07T07:23:43.648Z,10.18
2023-03-07T07:26:10.622Z,7.82
2023-03-07T07:28:37.560Z,11.85
2023-03-07T07:31:04.579Z,9.90
2023-03-07T07:33:31.840Z,7.40
2023-03-07T07:35:58.946Z,8.18
2023-03-07T07:38:26.016Z,6.85
2023-03-07T07:40:52.881Z,5.07
2023-03-07T07:43:19.762Z,5.85
2023-03-07T07:45:46.723Z,6.25
2023-03-07T07:48:13.733Z,5.30
2023-03-07T07:50:40.785Z,7.60
2023-03-07T07:53:07.718Z,8.88
2023-03-07T07:55:34.638Z,6.72
2023-03-07T07:58:01.546Z,7.50
2023-03-07T08:00:28.900Z,3.20
2023-03-07T08:02:56.042Z,4.85
2023-03-07T08:05:23.346Z,6.25
2023-03-07T08:07:50.612Z,3.72
2023-03-07T08:10:18.878Z,7.85
2023-03-07T08:12:51.430Z,3.20
2023-03-07T08:15:21.472Z,6.80
2023-03-07T08:17:51.368Z,5.25
2023-03-07T08:20:20.019Z,5.32
2023-03-07T08:22:49.188Z,3.67
2023-03-07T08:25:22.512Z,6.47
2023-03-07T08:27:55.164Z,4.78
2023-03-07T08:30:27.904Z,4.25
2023-03-07T08:32:56.147Z,3.83
2023-03-07T08:35:24.329Z,5.95
2023-03-07T08:37:55.663Z,2.83
2023-03-07T08:40:24.876Z,5.25
2023-03-07T08:42:52.367Z,6.65
2023-03-07T08:45:20.212Z,3.72
2023-03-07T08:47:48.031Z,2.80
2023-03-07T08:50:14.938Z,5.18
2023-03-07T08:52:43.278Z,6.43
2023-03-07T08:55:10.647Z,4.35
2023-03-07T08:57:37.573Z,4.78
2023-03-07T09:00:08.167Z,3.58
2023-03-07T09:02:35.512Z,4.05
2023-03-07T09:05:02.934Z,8.23
2023-03-07T09:07:29.832Z,4.95
2023-03-07T09:09:56.800Z,4.57
2023-03-07T09:12:23.697Z,4.72
2023-03-07T09:14:52.926Z,5.18
2023-03-07T09:17:19.839Z,8.23
2023-03-07T09:19:46.675Z,6.53
2023-03-07T09:22:13.726Z,4.82
2023-03-07T09:24:40.711Z,6.15
2023-03-07T09:27:07.752Z,6.30
2023-03-07T09:29:34.771Z,4.25
2023-03-07T09:32:04.024Z,4.88
2023-03-07T09:34:31.991Z,7.18
2023-03-07T09:36:59.029Z,5.38
2023-03-07T09:39:26.002Z,11.50
2023-03-07T09:41:58.811Z,4.57
2023-03-07T09:44:41.091Z,5.13
2023-03-07T09:47:26.217Z,5.50
2023-03-07T09:49:54.485Z,7.30
2023-03-07T09:52:26.128Z,4.15
2023-03-07T09:55:03.301Z,6.53
2023-03-07T09:57:37.185Z,5.88
2023-03-07T10:00:18.841Z,5.57
2023-03-07T10:03:07.992Z,4.30
2023-03-07T10:05:51.152Z,6.15
2023-03-07T10:08:26.769Z,5.35
2023-03-07T10:11:08.508Z,5.25
2023-03-07T10:13:54.053Z,8.45
2023-03-07T10:16:51.062Z,6.90
2023-03-07T10:19:29.088Z,7.38
2023-03-07T10:22:30.971Z,6.22
2023-03-07T10:25:25.950Z,5.63
2023-03-07T10:27:59.621Z,8.23
2023-03-07T10:30:31.280Z,6.38
2023-03-07T10:33:01.378Z,5.47
2023-03-07T10:35:41.966Z,7.32
2023-03-07T10:38:23.734Z,7.25
2023-03-07T10:40:55.164Z,7.95
2023-03-07T10:43:28.553Z,7.25
2023-03-07T10:46:26.501Z,7.65
2023-03-07T10:49:13.036Z,6.20
2023-03-07T10:51:58.064Z,5.10
2023-03-07T10:54:33.344Z,5.22
2023-03-07T10:57:13.134Z,7.30
2023-03-07T10:59:43.797Z,15.43
2023-03-07T11:02:34.698Z,16.33
2023-03-07T11:05:03.817Z,16.35
2023-03-07T11:07:34.556Z,15.82
2023-03-07T11:10:22.458Z,10.88
2023-03-07T11:12:49.480Z,8.65
2023-03-07T11:15:24.826Z,6.88
2023-03-07T11:17:52.757Z,4.97
2023-03-07T11:20:24.111Z,3.60
2023-03-07T11:23:12.780Z,4.30
2023-03-07T11:25:39.824Z,5.90
2023-03-07T11:28:24.528Z,4.65
2023-03-07T11:31:01.744Z,5.18
2023-03-07T11:33:37.199Z,5.55
2023-03-07T11:36:10.650Z,3.50
2023-03-07T11:39:00.524Z,4.00
2023-03-07T11:41:37.709Z,5.03
2023-03-07T11:44:05.643Z,5.40
2023-03-07T11:46:51.699Z,6.22
2023-03-07T11:49:37.456Z,7.63
2023-03-07T11:52:36.398Z,7.75
2023-03-07T11:55:18.469Z,11.15
2023-03-07T11:57:45.284Z,10.10
2023-03-07T12:00:24.040Z,8.93
2023-03-07T12:03:24.177Z,8.80
2023-03-07T12:06:12.179Z,7.93
2023-03-07T12:08:51.206Z,6.50
2023-03-07T12:11:23.800Z,5.93
2023-03-07T12:14:08.126Z,8.25
2023-03-07T12:16:56.566Z,9.02
2023-03-07T12:19:26.431Z,10.10
2023-03-07T12:22:24.408Z,8.57
2023-03-07T12:25:19.717Z,7.78
2023-03-07T12:28:14.620Z,9.73
2023-03-07T12:31:08.130Z,9.75
2023-03-07T12:34:07.344Z,8.45
2023-03-07T12:36:47.675Z,8.77
2023-03-07T12:39:37.286Z,6.65
2023-03-07T12:42:12.626Z,7.68
2023-03-07T12:44:51.825Z,9.13
2023-03-07T12:47:28.246Z,7.07
2023-03-07T12:50:13.901Z,14.57
2023-03-07T12:52:54.480Z,7.75
2023-03-07T12:55:21.743Z,8.10
2023-03-07T12:58:00.634Z,8.52
2023-03-07T13:00:27.573Z,6.25
2023-03-07T13:03:02.684Z,6.38
2023-03-07T13:05:37.874Z,9.95
2023-03-07T13:08:07.522Z,7.95
2023-03-07T13:10:34.897Z,7.63
2023-03-07T13:13:01.848Z,8.77
2023-03-07T13:15:38.143Z,9.13
2023-03-07T13:18:05.333Z,11.10
2023-03-07T13:20:42.079Z,8.70
2023-03-07T13:23:24.756Z,8.07
2023-03-07T13:26:07.666Z,6.53
2023-03-07T13:28:39.018Z,6.35
2023-03-07T13:31:21.405Z,6.05
2023-03-07T13:33:48.269Z,3.50
2023-03-07T13:36:37.882Z,5.28
2023-03-07T13:39:38.568Z,4.20
2023-03-07T13:42:25.575Z,4.90
2023-03-07T13:44:52.463Z,5.05
2023-03-07T13:47:41.775Z,4.97
2023-03-07T13:50:36.690Z,5.72
2023-03-07T13:53:11.512Z,6.10
2023-03-07T13:55:47.620Z,6.20
2023-03-07T13:58:37.707Z,6.68
2023-03-07T14:01:19.249Z,8.60
2023-03-07T14:03:55.992Z,6.00
2023-03-07T14:06:38.655Z,4.97
2023-03-07T14:09:08.828Z,5.82
2023-03-07T14:11:57.142Z,4.28
2023-03-07T14:14:40.690Z,4.20
2023-03-07T14:17:19.269Z,4.85
2023-03-07T14:19:52.808Z,6.90
2023-03-07T14:22:37.644Z,6.38
2023-03-07T14:25:04.972Z,8.43
2023-03-07T14:27:32.820Z,8.00
2023-03-07T14:29:59.711Z,6.72
2023-03-07T14:32:32.314Z,8.02
2023-03-07T14:34:59.662Z,4.22
2023-03-07T14:37:29.109Z,5.50
2023-03-07T14:39:59.258Z,5.45
2023-03-07T14:42:35.191Z,3.60
2023-03-07T14:45:14.096Z,3.80
2023-03-07T14:48:05.567Z,8.18
2023-03-07T14:50:33.764Z,3.35
2023-03-07T14:53:18.438Z,2.80
2023-03-07T14:55:47.554Z,2.83
2023-03-07T14:58:21.423Z,4.95
2023-03-07T15:01:02.306Z,5.97
2023-03-07T15:03:30.699Z,6.32
2023-03-07T15:06:00.048Z,4.72
2023-03-07T15:08:38.393Z,4.45
2023-03-07T15:11:14.347Z,4.40
2023-03-07T15:13:51.480Z,4.68
2023-03-07T15:16:27.431Z,6.13
2023-03-07T15:19:03.715Z,5.07
2023-03-07T15:21:40.347Z,4.70
2023-03-07T15:24:38.205Z,3.03
2023-03-07T15:27:10.753Z,5.22
2023-03-07T15:29:39.342Z,3.42
2023-03-07T15:32:25.647Z,3.30
2023-03-07T15:35:00.993Z,4.22
2023-03-07T15:37:32.640Z,3.47
2023-03-07T15:40:22.494Z,3.28
2023-03-07T15:42:56.517Z,5.20
2023-03-07T15:45:43.611Z,5.22
2023-03-07T15:48:15.845Z,8.50
2023-03-07T15:50:42.858Z,6.55
2023-03-07T15:53:20.143Z,5.65
2023-03-07T15:55:56.629Z,8.20
2023-03-07T15:58:23.733Z,6.75
2023-03-07T16:00:50.646Z,5.40
2023-03-07T16:03:21.114Z,4.10
2023-03-07T16:05:48.122Z,3.30
2023-03-07T16:08:22.369Z,5.78
2023-03-07T16:11:02.496Z,4.53
2023-03-07T16:13:32.641Z,6.47
2023-03-07T16:16:25.532Z,4.43
2023-03-07T16:18:53.675Z,6.65
2023-03-07T16:21:21.028Z,7.55
2023-03-07T16:23:48.322Z,6.15
2023-03-07T16:26:23.703Z,5.65
2023-03-07T16:28:52.195Z,8.40
2023-03-07T16:31:20.105Z,8.13
2023-03-07T16:33:48.075Z,7.93
2023-03-07T16:36:16.315Z,8.02
2023-03-07T16:38:43.641Z,9.02
2023-03-07T16:41:20.072Z,6.40
2023-03-07T16:43:57.601Z,5.30
2023-03-07T16:46:26.008Z,7.22
2023-03-07T16:48:53.236Z,6.88
2023-03-07T16:51:22.552Z,6.47
2023-03-07T16:53:50.851Z,9.38
2023-03-07T16:56:26.364Z,7.43
2023-03-07T16:58:53.600Z,8.18
2023-03-07T17:01:20.773Z,5.53
2023-03-07T17:03:48.560Z,9.00
2023-03-07T17:06:17.734Z,6.25
2023-03-07T17:08:46.002Z,6.95
2023-03-07T17:11:26.527Z,7.25
2023-03-07T17:13:55.700Z,5.82
2023-03-07T17:16:22.680Z,6.22
2023-03-07T17:18:49.661Z,5.82
2023-03-07T17:21:21.620Z,5.53
2023-03-07T17:23:49.667Z,6.45
2023-03-07T17:26:29.810Z,6.45
2023-03-07T17:29:01.486Z,5.90
2023-03-07T17:31:28.605Z,5.13
2023-03-07T17:33:59.014Z,6.22
2023-03-07T17:36:26.827Z,6.55
2023-03-07T17:38:53.808Z,10.77
2023-03-07T17:41:20.695Z,8.45
2023-03-07T17:43:49.766Z,6.80
2023-03-07T17:46:18.194Z,5.20
2023-03-07T17:48:45.049Z,6.82
2023-03-07T17:51:12.245Z,6.18
2023-03-07T17:53:39.345Z,6.47
2023-03-07T17:56:12.052Z,8.45
2023-03-07T17:58:39.748Z,7.47
2023-03-07T18:01:11.355Z,5.97
2023-03-07T18:03:39.365Z,7.03
2023-03-07T18:06:06.739Z,7.78
2023-03-07T18:08:34.442Z,8.80
2023-03-07T18:11:07.647Z,7.32
2023-03-07T18:13:35.289Z,8.10
2023-03-07T18:16:02.903Z,8.63
2023-03-07T18:18:35.127Z,9.13
2023-03-07T18:21:13.403Z,9.07
2023-03-07T18:23:41.254Z,7.35
2023-03-07T18:26:16.593Z,10.27
2023-03-07T18:28:46.046Z,9.52
2023-03-07T18:31:17.817Z,10.60
2023-03-07T18:33:45.677Z,10.02
2023-03-07T18:36:15.468Z,12.45
2023-03-07T18:38:43.485Z,12.20
2023-03-07T18:41:13.636Z,8.52
2023-03-07T18:43:42.731Z,9.18
2023-03-07T18:46:15.592Z,11.82
2023-03-07T18:48:43.315Z,11.05
2023-03-07T18:51:13.181Z,10.10
2023-03-07T18:53:40.484Z,11.30
2023-03-07T18:56:10.486Z,11.05
2023-03-07T18:58:38.157Z,14.55
2023-03-07T19:01:19.972Z,13.18
2023-03-07T19:03:49.665Z,12.27
2023-03-07T19:06:19.766Z,11.95
2023-03-07T19:08:47.361Z,16.90
2023-03-07T19:11:14.964Z,15.68
2023-03-07T19:13:43.168Z,14.15
2023-03-07T19:16:18.475Z,16.70
2023-03-07T19:18:46.431Z,16.90
2023-03-07T19:21:19.389Z,15.68
2023-03-07T19:23:47.869Z,15.93
2023-03-07T19:26:19.095Z,12.77
2023-03-07T19:28:48.158Z,12.00
2023-03-07T19:31:16.673Z,15.15
2023-03-07T19:33:44.634Z,14.32
2023-03-07T19:36:17.143Z,14.32
2023-03-07T19:38:46.518Z,13.63
2023-03-07T19:41:14.830Z,14.30
2023-03-07T19:43:42.427Z,13.15
2023-03-07T19:46:11.015Z,12.65
2023-03-07T19:48:40.693Z,13.73
2023-03-07T19:51:22.665Z,12.88
2023-03-07T19:53:50.269Z,13.13
2023-03-07T19:56:22.084Z,14.75
2023-03-07T19:58:49.374Z,14.43
2023-03-07T20:01:19.823Z,15.13
2023-03-07T20:03:47.928Z,14.13
2023-03-07T20:06:19.851Z,16.88
2023-03-07T20:08:52.295Z,14.95
2023-03-07T20:11:27.062Z,15.90
2023-03-07T20:13:56.458Z,18.30
2023-03-07T20:16:24.746Z,22.58
2023-03-07T20:18:53.468Z,18.95
2023-03-07T20:21:21.645Z,22.50
2023-03-07T20:23:49.096Z,35.25
2023-03-07T20:26:18.775Z,34.35
2023-03-07T20:28:46.279Z,21.98
2023-03-07T20:31:14.389Z,19.52
2023-03-07T20:33:47.152Z,22.45
2023-03-07T20:36:22.884Z,22.02
2023-03-07T20:38:55.200Z,18.77
2023-03-07T20:41:24.837Z,18.27
2023-03-07T20:43:53.273Z,21.02
2023-03-07T20:46:21.905Z,19.33
2023-03-07T20:48:50.415Z,20.40
2023-03-07T20:51:20.204Z,21.45
2023-03-07T20:53:52.719Z,24.20
2023-03-07T20:56:20.907Z,31.35
2023-03-07T20:58:48.169Z,24.58
2023-03-07T21:01:17.269Z,22.95
2023-03-07T21:03:45.286Z,22.65
2023-03-07T21:06:12.221Z,22.85
2023-03-07T21:08:39.336Z,19.63
2023-03-07T21:11:08.685Z,20.10
2023-03-07T21:13:38.155Z,21.52
2023-03-07T21:16:17.284Z,24.75
2023-03-07T21:18:44.874Z,21.88
2023-03-07T21:21:17.387Z,17.15
2023-03-07T21:23:45.221Z,20.35
2023-03-07T21:26:17.977Z,22.52
2023-03-07T21:28:45.332Z,21.83
2023-03-07T21:31:12.240Z,20.27
2023-03-07T21:33:40.873Z,21.48
2023-03-07T21:36:08.902Z,21.33
2023-03-07T21:38:38.991Z,22.83
2023-03-07T21:41:06.770Z,22.50
2023-03-07T21:43:34.392Z,24.45
2023-03-07T21:46:10.583Z,19.90
2023-03-07T21:48:38.602Z,23.33
2023-03-07T21:51:05.874Z,19.65
2023-03-07T21:53:32.854Z,21.02
2023-03-07T21:56:02.121Z,24.38
2023-03-07T21:58:30.242Z,20.65
2023-03-07T22:00:57.636Z,20.27
2023-03-07T22:03:26.989Z,22.67
2023-03-07T22:05:56.254Z,23.08
2023-03-07T22:08:24.134Z,21.25
2023-03-07T22:11:00.541Z,23.13
2023-03-07T22:13:28.082Z,23.88
2023-03-07T22:16:03.535Z,19.40
2023-03-07T22:18:30.702Z,22.20
2023-03-07T22:20:57.614Z,21.95
2023-03-07T22:23:28.712Z,23.42
2023-03-07T22:25:55.600Z,23.27
2023-03-07T22:28:23.114Z,24.58
2023-03-07T22:30:50.123Z,22.73
2023-03-07T22:33:17.215Z,21.75
2023-03-07T22:35:44.096Z,23.75
2023-03-07T22:38:10.944Z,18.95
2023-03-07T22:40:39.609Z,18.60
2023-03-07T22:43:06.917Z,19.58
2023-03-07T22:45:33.823Z,19.33
2023-03-07T22:48:00.910Z,18.73
2023-03-07T22:50:28.896Z,19.50
2023-03-07T22:52:55.951Z,19.92
2023-03-07T22:55:22.978Z,19.85
2023-03-07T22:57:49.944Z,20.83
2023-03-07T23:00:17.052Z,17.10
2023-03-07T23:02:44.357Z,19.45
2023-03-07T23:05:11.703Z,20.98
2023-03-07T23:07:41.159Z,20.45
2023-03-07T23:10:08.469Z,18.98
2023-03-07T23:12:35.470Z,24.58
2023-03-07T23:15:02.357Z,20.00
2023-03-07T23:17:29.158Z,23.17
2023-03-07T23:19:56.164Z,22.35
2023-03-07T23:22:32.471Z,21.40
2023-03-07T23:24:59.486Z,23.40
2023-03-07T23:27:26.561Z,21.25
2023-03-07T23:29:53.607Z,23.65
2023-03-07T23:32:20.723Z,24.23
2023-03-07T23:34:47.873Z,25.83
2023-03-07T23:37:14.778Z,23.35
2023-03-07T23:39:41.904Z,22.70
2023-03-07T23:42:11.988Z,24.75
2023-03-07T23:44:39.163Z,26.48
2023-03-07T23:47:06.449Z,24.60
2023-03-07T23:49:33.616Z,23.85
2023-03-07T23:52:00.753Z,21.00
2023-03-07T23:54:27.788Z,21.15
2023-03-07T23:56:54.790Z,22.15
2023-03-07T23:59:21.807Z,25.25
